Terminal Aerodrome Forecast
Issued by NWS

Home | Current Version | Previous Version | Text Only | Print | Product List | Glossary On
Versions: 1 2 3 4 5 6 7 8 9 10 11 12 13 14 15 16 17
277
FTUS46 KMFR 162335
TAFOTH
TAF
KOTH 162335Z 1700/1724 35020G28KT P6SM SKC
     FM170500 35010KT P6SM OVC010
     FM170900 36004KT 3SM BR OVC005
     FM171600 36008KT P6SM SCT008
     FM171900 36023G32KT P6SM SKC=

USA.gov is the U.S. government's official web portal to all federal, state and local government web resources and services.